sensor_id;sensor_type;location;lat;lon;timestamp;temperature;humidity
42031;DHT22;27709;52.036;5.906;2023-03-23T00:00:28;11.70;99.90
42031;DHT22;27709;52.036;5.906;2023-03-23T00:02:55;11.70;99.90
42031;DHT22;27709;52.036;5.906;2023-03-23T00:05:20;11.60;99.90
42031;DHT22;27709;52.036;5.906;2023-03-23T00:07:46;11.60;99.90
42031;DHT22;27709;52.036;5.906;2023-03-23T00:10:11;11.70;99.90
42031;DHT22;27709;52.036;5.906;2023-03-23T00:12:37;11.70;99.90
42031;DHT22;27709;52.036;5.906;2023-03-23T00:15:06;11.70;99.90
42031;DHT22;27709;52.036;5.906;2023-03-23T00:17:33;11.60;99.90
42031;DHT22;27709;52.036;5.906;2023-03-23T00:19:59;11.60;99.90
42031;DHT22;27709;52.036;5.906;2023-03-23T00:22:26;11.70;99.90
42031;DHT22;27709;52.036;5.906;2023-03-23T00:24:52;11.70;99.90
42031;DHT22;27709;52.036;5.906;2023-03-23T00:27:18;11.70;99.90
42031;DHT22;27709;52.036;5.906;2023-03-23T00:29:43;11.60;99.90
42031;DHT22;27709;52.036;5.906;2023-03-23T00:32:10;11.70;99.90
42031;DHT22;27709;52.036;5.906;2023-03-23T00:34:41;11.60;99.90
42031;DHT22;27709;52.036;5.906;2023-03-23T00:37:09;11.60;99.90
42031;DHT22;27709;52.036;5.906;2023-03-23T00:39:35;11.70;99.90
42031;DHT22;27709;52.036;5.906;2023-03-23T00:42:04;11.70;99.90
42031;DHT22;27709;52.036;5.906;2023-03-23T00:44:30;11.70;99.90
42031;DHT22;27709;52.036;5.906;2023-03-23T00:46:58;11.80;99.90
42031;DHT22;27709;52.036;5.906;2023-03-23T00:49:24;11.70;99.90
42031;DHT22;27709;52.036;5.906;2023-03-23T00:51:51;11.70;99.90
42031;DHT22;27709;52.036;5.906;2023-03-23T00:54:16;11.80;99.90
42031;DHT22;27709;52.036;5.906;2023-03-23T00:56:42;11.70;99.90
42031;DHT22;27709;52.036;5.906;2023-03-23T00:59:08;11.70;99.90
42031;DHT22;27709;52.036;5.906;2023-03-23T01:01:33;11.70;99.90
42031;DHT22;27709;52.036;5.906;2023-03-23T01:03:59;11.70;99.90
42031;DHT22;27709;52.036;5.906;2023-03-23T01:06:33;11.70;99.90
42031;DHT22;27709;52.036;5.906;2023-03-23T01:09:00;11.70;99.90
42031;DHT22;27709;52.036;5.906;2023-03-23T01:11:26;11.70;99.90
42031;DHT22;27709;52.036;5.906;2023-03-23T01:13:53;11.60;99.90
42031;DHT22;27709;52.036;5.906;2023-03-23T01:16:18;11.60;99.90
42031;DHT22;27709;52.036;5.906;2023-03-23T01:18:44;11.60;99.90
42031;DHT22;27709;52.036;5.906;2023-03-23T01:21:11;11.60;99.90
42031;DHT22;27709;52.036;5.906;2023-03-23T01:23:37;11.60;99.90
42031;DHT22;27709;52.036;5.906;2023-03-23T01:26:06;11.60;99.90
42031;DHT22;27709;52.036;5.906;2023-03-23T01:28:33;11.60;99.90
42031;DHT22;27709;52.036;5.906;2023-03-23T01:31:02;11.60;99.90
42031;DHT22;27709;52.036;5.906;2023-03-23T01:33:29;11.60;99.90
42031;DHT22;27709;52.036;5.906;2023-03-23T01:35:54;11.60;99.90
42031;DHT22;27709;52.036;5.906;2023-03-23T01:38:20;11.60;99.90
42031;DHT22;27709;52.036;5.906;2023-03-23T01:40:46;11.70;99.90
42031;DHT22;27709;52.036;5.906;2023-03-23T01:43:13;11.60;99.90
42031;DHT22;27709;52.036;5.906;2023-03-23T01:45:39;11.70;99.90
42031;DHT22;27709;52.036;5.906;2023-03-23T01:48:07;11.60;99.90
42031;DHT22;27709;52.036;5.906;2023-03-23T01:50:36;11.70;99.90
42031;DHT22;27709;52.036;5.906;2023-03-23T01:53:03;11.70;99.90
42031;DHT22;27709;52.036;5.906;2023-03-23T01:55:31;11.80;99.90
42031;DHT22;27709;52.036;5.906;2023-03-23T01:57:57;11.70;99.90
42031;DHT22;27709;52.036;5.906;2023-03-23T02:00:22;11.80;99.90
42031;DHT22;27709;52.036;5.906;2023-03-23T02:02:49;11.80;99.90
42031;DHT22;27709;52.036;5.906;2023-03-23T02:05:24;11.80;99.90
42031;DHT22;27709;52.036;5.906;2023-03-23T02:07:52;11.80;99.90
42031;DHT22;27709;52.036;5.906;2023-03-23T02:10:18;11.80;99.90
42031;DHT22;27709;52.036;5.906;2023-03-23T02:12:43;11.80;99.90
42031;DHT22;27709;52.036;5.906;2023-03-23T02:15:09;11.80;99.90
42031;DHT22;27709;52.036;5.906;2023-03-23T02:18:10;11.80;99.90
42031;DHT22;27709;52.036;5.906;2023-03-23T02:36:14;11.90;99.90
42031;DHT22;27709;52.036;5.906;2023-03-23T02:41:28;11.90;99.90
42031;DHT22;27709;52.036;5.906;2023-03-23T02:43:56;11.90;99.90
42031;DHT22;27709;52.036;5.906;2023-03-23T02:46:22;11.90;99.90
42031;DHT22;27709;52.036;5.906;2023-03-23T02:48:47;11.90;99.90
42031;DHT22;27709;52.036;5.906;2023-03-23T02:51:16;11.90;99.90
42031;DHT22;27709;52.036;5.906;2023-03-23T02:53:42;11.90;99.90
42031;DHT22;27709;52.036;5.906;2023-03-23T02:56:08;11.90;99.90
42031;DHT22;27709;52.036;5.906;2023-03-23T02:58:34;11.90;99.90
42031;DHT22;27709;52.036;5.906;2023-03-23T03:01:10;11.90;99.90
42031;DHT22;27709;52.036;5.906;2023-03-23T03:03:39;11.90;99.90
42031;DHT22;27709;52.036;5.906;2023-03-23T03:06:10;12.00;99.90
42031;DHT22;27709;52.036;5.906;2023-03-23T03:08:39;12.00;99.90
42031;DHT22;27709;52.036;5.906;2023-03-23T03:11:14;12.00;99.90
42031;DHT22;27709;52.036;5.906;2023-03-23T03:16:16;12.00;99.90
42031;DHT22;27709;52.036;5.906;2023-03-23T03:18:49;12.00;99.90
42031;DHT22;27709;52.036;5.906;2023-03-23T03:21:16;12.00;99.90
42031;DHT22;27709;52.036;5.906;2023-03-23T03:23:45;12.00;99.90
42031;DHT22;27709;52.036;5.906;2023-03-23T03:26:12;12.00;99.90
42031;DHT22;27709;52.036;5.906;2023-03-23T03:28:43;12.00;99.90
42031;DHT22;27709;52.036;5.906;2023-03-23T03:31:09;12.10;99.90
42031;DHT22;27709;52.036;5.906;2023-03-23T03:33:34;12.00;99.90
42031;DHT22;27709;52.036;5.906;2023-03-23T03:36:01;12.00;99.90
42031;DHT22;27709;52.036;5.906;2023-03-23T03:38:27;12.10;99.90
42031;DHT22;27709;52.036;5.906;2023-03-23T03:40:53;12.00;99.90
42031;DHT22;27709;52.036;5.906;2023-03-23T03:43:18;12.10;99.90
42031;DHT22;27709;52.036;5.906;2023-03-23T03:45:44;12.10;99.90
42031;DHT22;27709;52.036;5.906;2023-03-23T03:48:09;12.10;99.90
42031;DHT22;27709;52.036;5.906;2023-03-23T03:50:35;12.00;99.90
42031;DHT22;27709;52.036;5.906;2023-03-23T03:53:01;12.00;99.90
42031;DHT22;27709;52.036;5.906;2023-03-23T03:55:26;12.10;99.90
42031;DHT22;27709;52.036;5.906;2023-03-23T03:57:53;12.10;99.90
42031;DHT22;27709;52.036;5.906;2023-03-23T04:00:20;12.00;99.90
42031;DHT22;27709;52.036;5.906;2023-03-23T04:02:46;12.00;99.90
42031;DHT22;27709;52.036;5.906;2023-03-23T04:05:23;12.10;99.90
42031;DHT22;27709;52.036;5.906;2023-03-23T04:07:49;12.10;99.90
42031;DHT22;27709;52.036;5.906;2023-03-23T04:10:17;12.10;99.90
42031;DHT22;27709;52.036;5.906;2023-03-23T04:12:45;12.10;99.90
42031;DHT22;27709;52.036;5.906;2023-03-23T04:15:10;12.10;99.90
42031;DHT22;27709;52.036;5.906;2023-03-23T04:17:36;12.10;99.90
42031;DHT22;27709;52.036;5.906;2023-03-23T04:20:02;12.10;99.90
42031;DHT22;27709;52.036;5.906;2023-03-23T04:22:33;12.10;99.90
42031;DHT22;27709;52.036;5.906;2023-03-23T04:24:59;12.10;99.90
42031;DHT22;27709;52.036;5.906;2023-03-23T04:27:27;12.10;99.90
42031;DHT22;27709;52.036;5.906;2023-03-23T04:29:54;12.10;99.90
42031;DHT22;27709;52.036;5.906;2023-03-23T04:32:20;12.00;99.90
42031;DHT22;27709;52.036;5.906;2023-03-23T04:34:46;12.10;99.90
42031;DHT22;27709;52.036;5.906;2023-03-23T04:37:11;12.10;99.90
42031;DHT22;27709;52.036;5.906;2023-03-23T04:39:38;12.10;99.90
42031;DHT22;27709;52.036;5.906;2023-03-23T04:42:05;12.10;99.90
42031;DHT22;27709;52.036;5.906;2023-03-23T04:44:30;12.10;99.90
42031;DHT22;27709;52.036;5.906;2023-03-23T04:47:00;12.10;99.90
42031;DHT22;27709;52.036;5.906;2023-03-23T04:49:26;12.10;99.90
42031;DHT22;27709;52.036;5.906;2023-03-23T04:51:52;12.20;99.90
42031;DHT22;27709;52.036;5.906;2023-03-23T04:54:17;12.20;99.90
42031;DHT22;27709;52.036;5.906;2023-03-23T04:56:43;12.20;99.90
42031;DHT22;27709;52.036;5.906;2023-03-23T04:59:08;12.30;99.90
42031;DHT22;27709;52.036;5.906;2023-03-23T05:01:34;12.30;99.90
42031;DHT22;27709;52.036;5.906;2023-03-23T05:04:02;12.30;99.90
42031;DHT22;27709;52.036;5.906;2023-03-23T05:06:28;12.30;99.90
42031;DHT22;27709;52.036;5.906;2023-03-23T05:08:53;12.30;99.90
42031;DHT22;27709;52.036;5.906;2023-03-23T05:11:19;12.30;99.90
42031;DHT22;27709;52.036;5.906;2023-03-23T05:13:44;12.30;99.90
42031;DHT22;27709;52.036;5.906;2023-03-23T05:16:10;12.20;99.90
42031;DHT22;27709;52.036;5.906;2023-03-23T05:18:35;12.20;99.90
42031;DHT22;27709;52.036;5.906;2023-03-23T05:21:01;12.20;99.90
42031;DHT22;27709;52.036;5.906;2023-03-23T05:23:28;12.20;99.90
42031;DHT22;27709;52.036;5.906;2023-03-23T05:25:59;12.20;99.90
42031;DHT22;27709;52.036;5.906;2023-03-23T05:28:27;12.20;99.90
42031;DHT22;27709;52.036;5.906;2023-03-23T05:30:53;12.20;99.90
42031;DHT22;27709;52.036;5.906;2023-03-23T05:33:21;12.20;99.90
42031;DHT22;27709;52.036;5.906;2023-03-23T05:35:47;12.30;99.90
42031;DHT22;27709;52.036;5.906;2023-03-23T05:38:13;12.30;99.90
42031;DHT22;27709;52.036;5.906;2023-03-23T05:40:40;12.30;99.90
42031;DHT22;27709;52.036;5.906;2023-03-23T05:43:07;12.30;99.90
42031;DHT22;27709;52.036;5.906;2023-03-23T05:45:33;12.30;99.90
42031;DHT22;27709;52.036;5.906;2023-03-23T05:47:59;12.30;99.90
42031;DHT22;27709;52.036;5.906;2023-03-23T05:50:24;12.30;99.90
42031;DHT22;27709;52.036;5.906;2023-03-23T05:52:50;12.30;99.90
42031;DHT22;27709;52.036;5.906;2023-03-23T05:55:16;12.30;99.90
42031;DHT22;27709;52.036;5.906;2023-03-23T05:57:42;12.30;99.90
42031;DHT22;27709;52.036;5.906;2023-03-23T06:00:08;12.30;99.90
42031;DHT22;27709;52.036;5.906;2023-03-23T06:02:40;12.40;99.90
42031;DHT22;27709;52.036;5.906;2023-03-23T06:05:09;12.40;99.90
42031;DHT22;27709;52.036;5.906;2023-03-23T06:07:34;12.40;99.90
42031;DHT22;27709;52.036;5.906;2023-03-23T06:10:00;12.40;99.90
42031;DHT22;27709;52.036;5.906;2023-03-23T06:12:27;12.40;99.90
42031;DHT22;27709;52.036;5.906;2023-03-23T06:14:53;12.40;99.90
42031;DHT22;27709;52.036;5.906;2023-03-23T06:17:18;12.40;99.90
42031;DHT22;27709;52.036;5.906;2023-03-23T06:19:44;12.50;99.90
42031;DHT22;27709;52.036;5.906;2023-03-23T06:22:19;12.50;99.90
42031;DHT22;27709;52.036;5.906;2023-03-23T06:24:44;12.50;99.90
42031;DHT22;27709;52.036;5.906;2023-03-23T06:27:12;12.50;99.90
42031;DHT22;27709;52.036;5.906;2023-03-23T06:29:38;12.60;99.90
42031;DHT22;27709;52.036;5.906;2023-03-23T06:32:05;12.60;99.90
42031;DHT22;27709;52.036;5.906;2023-03-23T06:34:30;12.60;99.90
42031;DHT22;27709;52.036;5.906;2023-03-23T06:36:57;12.60;99.90
42031;DHT22;27709;52.036;5.906;2023-03-23T06:39:23;12.70;99.90
42031;DHT22;27709;52.036;5.906;2023-03-23T06:41:49;12.70;99.90
42031;DHT22;27709;52.036;5.906;2023-03-23T06:44:14;12.70;99.90
42031;DHT22;27709;52.036;5.906;2023-03-23T06:46:40;12.70;99.90
42031;DHT22;27709;52.036;5.906;2023-03-23T06:49:06;12.70;99.90
42031;DHT22;27709;52.036;5.906;2023-03-23T06:51:32;12.70;99.90
42031;DHT22;27709;52.036;5.906;2023-03-23T06:53:57;12.70;99.90
42031;DHT22;27709;52.036;5.906;2023-03-23T06:56:23;12.70;99.90
42031;DHT22;27709;52.036;5.906;2023-03-23T06:58:49;12.70;99.90
42031;DHT22;27709;52.036;5.906;2023-03-23T07:01:14;12.70;99.90
42031;DHT22;27709;52.036;5.906;2023-03-23T07:03:40;12.70;99.90
42031;DHT22;27709;52.036;5.906;2023-03-23T07:06:06;12.70;99.90
42031;DHT22;27709;52.036;5.906;2023-03-23T07:08:32;12.70;99.90
42031;DHT22;27709;52.036;5.906;2023-03-23T07:10:57;12.60;99.90
42031;DHT22;27709;52.036;5.906;2023-03-23T07:13:23;12.60;99.90
42031;DHT22;27709;52.036;5.906;2023-03-23T07:15:49;12.60;99.90
42031;DHT22;27709;52.036;5.906;2023-03-23T07:18:15;12.70;99.90
42031;DHT22;27709;52.036;5.906;2023-03-23T07:20:41;12.70;99.90
42031;DHT22;27709;52.036;5.906;2023-03-23T07:23:07;12.70;99.90
42031;DHT22;27709;52.036;5.906;2023-03-23T07:25:34;12.80;99.90
42031;DHT22;27709;52.036;5.906;2023-03-23T07:28:00;12.80;99.90
42031;DHT22;27709;52.036;5.906;2023-03-23T07:30:26;12.90;99.90
42031;DHT22;27709;52.036;5.906;2023-03-23T07:32:53;12.90;99.90
42031;DHT22;27709;52.036;5.906;2023-03-23T07:35:18;13.00;99.90
42031;DHT22;27709;52.036;5.906;2023-03-23T07:37:44;13.10;99.90
42031;DHT22;27709;52.036;5.906;2023-03-23T07:40:10;13.10;99.90
42031;DHT22;27709;52.036;5.906;2023-03-23T07:42:42;13.10;99.90
42031;DHT22;27709;52.036;5.906;2023-03-23T07:45:11;13.10;99.90
42031;DHT22;27709;52.036;5.906;2023-03-23T07:47:40;13.10;99.90
42031;DHT22;27709;52.036;5.906;2023-03-23T07:50:06;13.00;99.90
42031;DHT22;27709;52.036;5.906;2023-03-23T07:52:35;13.00;99.90
42031;DHT22;27709;52.036;5.906;2023-03-23T07:55:07;12.90;99.90
42031;DHT22;27709;52.036;5.906;2023-03-23T07:57:33;12.90;99.90
42031;DHT22;27709;52.036;5.906;2023-03-23T08:00:00;12.90;99.90
42031;DHT22;27709;52.036;5.906;2023-03-23T08:02:26;12.90;99.90
42031;DHT22;27709;52.036;5.906;2023-03-23T08:04:57;12.90;99.90
42031;DHT22;27709;52.036;5.906;2023-03-23T08:07:26;12.80;99.90
42031;DHT22;27709;52.036;5.906;2023-03-23T08:09:51;12.70;99.90
42031;DHT22;27709;52.036;5.906;2023-03-23T08:12:17;12.80;99.90
42031;DHT22;27709;52.036;5.906;2023-03-23T08:14:43;12.80;99.90
42031;DHT22;27709;52.036;5.906;2023-03-23T08:17:08;12.80;99.90
42031;DHT22;27709;52.036;5.906;2023-03-23T08:19:37;12.80;99.90
42031;DHT22;27709;52.036;5.906;2023-03-23T08:22:03;12.80;99.90
42031;DHT22;27709;52.036;5.906;2023-03-23T08:24:30;12.80;99.90
42031;DHT22;27709;52.036;5.906;2023-03-23T08:26:55;12.70;99.90
42031;DHT22;27709;52.036;5.906;2023-03-23T08:29:20;12.70;99.90
42031;DHT22;27709;52.036;5.906;2023-03-23T08:31:46;12.80;99.90
42031;DHT22;27709;52.036;5.906;2023-03-23T08:34:12;12.80;99.90
42031;DHT22;27709;52.036;5.906;2023-03-23T08:36:38;12.80;99.90
42031;DHT22;27709;52.036;5.906;2023-03-23T08:39:04;12.80;99.90
42031;DHT22;27709;52.036;5.906;2023-03-23T08:41:31;12.80;99.90
42031;DHT22;27709;52.036;5.906;2023-03-23T08:43:59;12.80;99.90
42031;DHT22;27709;52.036;5.906;2023-03-23T08:46:24;12.90;99.90
42031;DHT22;27709;52.036;5.906;2023-03-23T08:48:50;12.90;99.90
42031;DHT22;27709;52.036;5.906;2023-03-23T08:51:15;13.10;99.90
42031;DHT22;27709;52.036;5.906;2023-03-23T08:53:42;13.40;99.90
42031;DHT22;27709;52.036;5.906;2023-03-23T08:56:09;13.60;99.90
42031;DHT22;27709;52.036;5.906;2023-03-23T08:58:35;13.60;99.90
42031;DHT22;27709;52.036;5.906;2023-03-23T09:01:01;13.50;99.90
42031;DHT22;27709;52.036;5.906;2023-03-23T09:03:28;13.50;99.90
42031;DHT22;27709;52.036;5.906;2023-03-23T09:05:59;13.60;99.90
42031;DHT22;27709;52.036;5.906;2023-03-23T09:08:27;13.60;99.90
42031;DHT22;27709;52.036;5.906;2023-03-23T09:11:03;13.60;99.90
42031;DHT22;27709;52.036;5.906;2023-03-23T09:13:29;13.60;99.90
42031;DHT22;27709;52.036;5.906;2023-03-23T09:15:55;13.70;99.90
42031;DHT22;27709;52.036;5.906;2023-03-23T09:18:20;13.70;99.90
42031;DHT22;27709;52.036;5.906;2023-03-23T09:20:48;13.70;99.90
42031;DHT22;27709;52.036;5.906;2023-03-23T09:23:14;13.70;99.90
42031;DHT22;27709;52.036;5.906;2023-03-23T09:25:40;13.80;99.90
42031;DHT22;27709;52.036;5.906;2023-03-23T09:28:06;13.90;99.90
42031;DHT22;27709;52.036;5.906;2023-03-23T09:30:32;14.30;99.90
42031;DHT22;27709;52.036;5.906;2023-03-23T09:33:02;14.90;99.90
42031;DHT22;27709;52.036;5.906;2023-03-23T09:35:27;15.30;99.90
42031;DHT22;27709;52.036;5.906;2023-03-23T09:37:53;15.40;99.90
42031;DHT22;27709;52.036;5.906;2023-03-23T09:40:23;15.60;99.90
42031;DHT22;27709;52.036;5.906;2023-03-23T09:50:32;16.30;99.90
42031;DHT22;27709;52.036;5.906;2023-03-23T09:53:14;16.30;99.90
42031;DHT22;27709;52.036;5.906;2023-03-23T09:55:42;16.20;99.90
42031;DHT22;27709;52.036;5.906;2023-03-23T09:58:22;16.10;99.90
42031;DHT22;27709;52.036;5.906;2023-03-23T10:00:57;16.20;99.90
42031;DHT22;27709;52.036;5.906;2023-03-23T10:03:36;16.20;99.90
42031;DHT22;27709;52.036;5.906;2023-03-23T10:06:02;16.30;99.90
42031;DHT22;27709;52.036;5.906;2023-03-23T10:08:29;16.40;99.90
42031;DHT22;27709;52.036;5.906;2023-03-23T10:16:23;16.80;99.90
42031;DHT22;27709;52.036;5.906;2023-03-23T10:21:35;16.60;99.90
42031;DHT22;27709;52.036;5.906;2023-03-23T10:24:03;16.70;99.90
42031;DHT22;27709;52.036;5.906;2023-03-23T10:29:17;16.80;99.90
42031;DHT22;27709;52.036;5.906;2023-03-23T10:31:46;17.20;99.90
42031;DHT22;27709;52.036;5.906;2023-03-23T10:36:50;17.70;99.90
42031;DHT22;27709;52.036;5.906;2023-03-23T10:39:20;17.50;99.90
42031;DHT22;27709;52.036;5.906;2023-03-23T10:41:47;17.30;99.90
42031;DHT22;27709;52.036;5.906;2023-03-23T10:49:06;16.70;99.90
42031;DHT22;27709;52.036;5.906;2023-03-23T10:51:39;16.80;99.90
42031;DHT22;27709;52.036;5.906;2023-03-23T10:54:05;16.80;99.90
42031;DHT22;27709;52.036;5.906;2023-03-23T10:56:43;17.00;99.90
42031;DHT22;27709;52.036;5.906;2023-03-23T10:59:20;17.00;99.90
42031;DHT22;27709;52.036;5.906;2023-03-23T11:01:48;17.00;99.90
42031;DHT22;27709;52.036;5.906;2023-03-23T11:04:15;16.90;99.90
42031;DHT22;27709;52.036;5.906;2023-03-23T11:06:43;16.90;99.90
42031;DHT22;27709;52.036;5.906;2023-03-23T11:09:11;17.00;99.90
42031;DHT22;27709;52.036;5.906;2023-03-23T11:11:38;17.20;99.90
42031;DHT22;27709;52.036;5.906;2023-03-23T11:14:17;17.30;99.90
42031;DHT22;27709;52.036;5.906;2023-03-23T11:16:51;17.40;99.80
42031;DHT22;27709;52.036;5.906;2023-03-23T11:19:24;17.50;99.60
42031;DHT22;27709;52.036;5.906;2023-03-23T11:21:51;17.50;99.30
42031;DHT22;27709;52.036;5.906;2023-03-23T11:24:21;17.40;99.60
42031;DHT22;27709;52.036;5.906;2023-03-23T11:26:46;17.60;99.60
42031;DHT22;27709;52.036;5.906;2023-03-23T11:29:14;17.60;99.50
42031;DHT22;27709;52.036;5.906;2023-03-23T11:31:42;17.50;99.90
42031;DHT22;27709;52.036;5.906;2023-03-23T11:36:38;17.70;99.90
42031;DHT22;27709;52.036;5.906;2023-03-23T11:41:46;17.60;98.90
42031;DHT22;27709;52.036;5.906;2023-03-23T11:44:12;17.40;99.10
42031;DHT22;27709;52.036;5.906;2023-03-23T11:46:41;17.20;99.30
42031;DHT22;27709;52.036;5.906;2023-03-23T11:49:10;17.00;99.00
42031;DHT22;27709;52.036;5.906;2023-03-23T11:51:39;16.70;99.70
42031;DHT22;27709;52.036;5.906;2023-03-23T11:56:39;16.40;99.90
42031;DHT22;27709;52.036;5.906;2023-03-23T11:59:10;16.30;99.90
42031;DHT22;27709;52.036;5.906;2023-03-23T12:01:41;16.20;99.90
42031;DHT22;27709;52.036;5.906;2023-03-23T12:14:43;16.50;99.90
42031;DHT22;27709;52.036;5.906;2023-03-23T12:20:08;16.50;99.90
42031;DHT22;27709;52.036;5.906;2023-03-23T12:22:40;16.50;99.90
42031;DHT22;27709;52.036;5.906;2023-03-23T12:27:59;16.40;99.90
42031;DHT22;27709;52.036;5.906;2023-03-23T12:31:03;16.30;99.90
42031;DHT22;27709;52.036;5.906;2023-03-23T12:36:08;16.20;99.90
42031;DHT22;27709;52.036;5.906;2023-03-23T12:41:02;16.10;99.90
42031;DHT22;27709;52.036;5.906;2023-03-23T12:43:36;15.90;99.90
42031;DHT22;27709;52.036;5.906;2023-03-23T12:46:23;15.90;99.90
42031;DHT22;27709;52.036;5.906;2023-03-23T12:49:16;15.70;99.90
42031;DHT22;27709;52.036;5.906;2023-03-23T12:54:36;15.10;99.90
42031;DHT22;27709;52.036;5.906;2023-03-23T12:57:14;14.90;99.90
42031;DHT22;27709;52.036;5.906;2023-03-23T12:59:47;14.70;99.90
42031;DHT22;27709;52.036;5.906;2023-03-23T13:02:22;14.40;99.90
42031;DHT22;27709;52.036;5.906;2023-03-23T13:04:50;14.20;99.90
42031;DHT22;27709;52.036;5.906;2023-03-23T13:07:19;14.10;99.90
42031;DHT22;27709;52.036;5.906;2023-03-23T13:09:48;14.00;99.90
42031;DHT22;27709;52.036;5.906;2023-03-23T13:12:15;13.90;99.90
42031;DHT22;27709;52.036;5.906;2023-03-23T13:22:49;14.30;99.90
42031;DHT22;27709;52.036;5.906;2023-03-23T13:28:01;14.40;99.90
42031;DHT22;27709;52.036;5.906;2023-03-23T13:30:28;14.30;99.90
42031;DHT22;27709;52.036;5.906;2023-03-23T13:33:01;14.30;99.90
42031;DHT22;27709;52.036;5.906;2023-03-23T13:35:28;14.30;99.90
42031;DHT22;27709;52.036;5.906;2023-03-23T13:37:58;14.40;99.90
42031;DHT22;27709;52.036;5.906;2023-03-23T13:40:25;14.50;99.90
42031;DHT22;27709;52.036;5.906;2023-03-23T13:42:53;14.70;99.90
42031;DHT22;27709;52.036;5.906;2023-03-23T13:47:44;14.80;99.90
42031;DHT22;27709;52.036;5.906;2023-03-23T13:55:17;15.00;99.90
42031;DHT22;27709;52.036;5.906;2023-03-23T13:57:53;14.90;99.90
42031;DHT22;27709;52.036;5.906;2023-03-23T14:05:33;14.80;99.90
42031;DHT22;27709;52.036;5.906;2023-03-23T14:08:00;14.80;99.90
42031;DHT22;27709;52.036;5.906;2023-03-23T14:10:36;14.80;99.90
42031;DHT22;27709;52.036;5.906;2023-03-23T14:13:02;14.80;99.90
42031;DHT22;27709;52.036;5.906;2023-03-23T14:15:29;14.70;99.90
42031;DHT22;27709;52.036;5.906;2023-03-23T14:17:55;14.70;99.90
42031;DHT22;27709;52.036;5.906;2023-03-23T14:20:24;14.70;99.90
42031;DHT22;27709;52.036;5.906;2023-03-23T14:22:53;14.70;99.90
42031;DHT22;27709;52.036;5.906;2023-03-23T14:25:19;14.60;99.90
42031;DHT22;27709;52.036;5.906;2023-03-23T14:27:46;14.60;99.90
42031;DHT22;27709;52.036;5.906;2023-03-23T14:30:16;14.60;99.90
42031;DHT22;27709;52.036;5.906;2023-03-23T14:32:42;14.50;99.90
42031;DHT22;27709;52.036;5.906;2023-03-23T14:38:11;14.50;99.90
42031;DHT22;27709;52.036;5.906;2023-03-23T14:40:39;14.70;99.90
42031;DHT22;27709;52.036;5.906;2023-03-23T14:43:05;14.90;99.90
42031;DHT22;27709;52.036;5.906;2023-03-23T14:45:31;15.00;99.90
42031;DHT22;27709;52.036;5.906;2023-03-23T14:47:57;15.00;99.90
42031;DHT22;27709;52.036;5.906;2023-03-23T14:52:49;15.20;99.90
42031;DHT22;27709;52.036;5.906;2023-03-23T14:55:20;15.30;99.90
42031;DHT22;27709;52.036;5.906;2023-03-23T14:57:46;15.30;99.90
42031;DHT22;27709;52.036;5.906;2023-03-23T15:00:17;15.30;99.90
42031;DHT22;27709;52.036;5.906;2023-03-23T15:02:44;15.30;99.90
42031;DHT22;27709;52.036;5.906;2023-03-23T15:05:12;15.20;99.90
42031;DHT22;27709;52.036;5.906;2023-03-23T15:07:40;15.30;99.90
42031;DHT22;27709;52.036;5.906;2023-03-23T15:10:07;15.30;99.90
42031;DHT22;27709;52.036;5.906;2023-03-23T15:12:35;15.30;99.90
42031;DHT22;27709;52.036;5.906;2023-03-23T15:15:04;15.30;99.90
42031;DHT22;27709;52.036;5.906;2023-03-23T15:17:31;15.30;99.90
42031;DHT22;27709;52.036;5.906;2023-03-23T15:20:00;15.40;99.90
42031;DHT22;27709;52.036;5.906;2023-03-23T15:22:32;15.30;99.90
42031;DHT22;27709;52.036;5.906;2023-03-23T15:29:55;15.20;99.90
42031;DHT22;27709;52.036;5.906;2023-03-23T15:32:30;15.20;99.90
42031;DHT22;27709;52.036;5.906;2023-03-23T15:34:56;15.20;99.90
42031;DHT22;27709;52.036;5.906;2023-03-23T15:37:26;15.20;99.90
42031;DHT22;27709;52.036;5.906;2023-03-23T15:39:52;15.30;99.90
42031;DHT22;27709;52.036;5.906;2023-03-23T15:42:31;15.40;99.90
42031;DHT22;27709;52.036;5.906;2023-03-23T15:50:43;15.20;99.90
42031;DHT22;27709;52.036;5.906;2023-03-23T15:55:46;15.00;99.90
42031;DHT22;27709;52.036;5.906;2023-03-23T15:58:12;14.90;99.90
42031;DHT22;27709;52.036;5.906;2023-03-23T16:00:38;15.00;99.90
42031;DHT22;27709;52.036;5.906;2023-03-23T16:03:05;15.00;99.90
42031;DHT22;27709;52.036;5.906;2023-03-23T16:05:31;15.10;99.90
42031;DHT22;27709;52.036;5.906;2023-03-23T16:07:57;15.10;99.90
42031;DHT22;27709;52.036;5.906;2023-03-23T16:10:23;15.00;99.90
42031;DHT22;27709;52.036;5.906;2023-03-23T16:12:49;15.00;99.90
42031;DHT22;27709;52.036;5.906;2023-03-23T16:15:15;15.00;99.90
42031;DHT22;27709;52.036;5.906;2023-03-23T16:17:41;15.00;99.90
42031;DHT22;27709;52.036;5.906;2023-03-23T16:20:10;15.00;99.90
42031;DHT22;27709;52.036;5.906;2023-03-23T16:22:36;15.00;99.90
42031;DHT22;27709;52.036;5.906;2023-03-23T16:25:02;15.10;99.90
42031;DHT22;27709;52.036;5.906;2023-03-23T16:27:27;15.00;99.90
42031;DHT22;27709;52.036;5.906;2023-03-23T16:29:53;14.90;99.90
42031;DHT22;27709;52.036;5.906;2023-03-23T16:32:18;14.90;99.90
42031;DHT22;27709;52.036;5.906;2023-03-23T16:34:44;15.00;99.90
42031;DHT22;27709;52.036;5.906;2023-03-23T16:37:09;15.00;99.90
42031;DHT22;27709;52.036;5.906;2023-03-23T16:39:35;15.00;99.90
42031;DHT22;27709;52.036;5.906;2023-03-23T16:42:00;14.90;99.90
42031;DHT22;27709;52.036;5.906;2023-03-23T16:44:26;14.90;99.90
42031;DHT22;27709;52.036;5.906;2023-03-23T16:46:51;14.80;99.90
42031;DHT22;27709;52.036;5.906;2023-03-23T16:49:16;14.70;99.90
42031;DHT22;27709;52.036;5.906;2023-03-23T16:51:42;14.70;99.90
42031;DHT22;27709;52.036;5.906;2023-03-23T16:54:07;14.60;99.90
42031;DHT22;27709;52.036;5.906;2023-03-23T16:56:33;14.50;99.90
42031;DHT22;27709;52.036;5.906;2023-03-23T16:58:58;14.50;99.90
42031;DHT22;27709;52.036;5.906;2023-03-23T17:01:23;14.50;99.90
42031;DHT22;27709;52.036;5.906;2023-03-23T17:03:49;14.40;99.90
42031;DHT22;27709;52.036;5.906;2023-03-23T17:06:14;14.40;99.90
42031;DHT22;27709;52.036;5.906;2023-03-23T17:08:40;14.40;99.90
42031;DHT22;27709;52.036;5.906;2023-03-23T17:11:06;14.40;99.90
42031;DHT22;27709;52.036;5.906;2023-03-23T17:13:31;14.40;99.90
42031;DHT22;27709;52.036;5.906;2023-03-23T17:15:57;14.30;99.90
42031;DHT22;27709;52.036;5.906;2023-03-23T17:18:22;14.30;99.90
42031;DHT22;27709;52.036;5.906;2023-03-23T17:20:48;14.30;99.90
42031;DHT22;27709;52.036;5.906;2023-03-23T17:23:14;14.30;99.90
42031;DHT22;27709;52.036;5.906;2023-03-23T17:25:42;14.20;99.90
42031;DHT22;27709;52.036;5.906;2023-03-23T17:28:07;14.20;99.90
42031;DHT22;27709;52.036;5.906;2023-03-23T17:30:33;14.20;99.90
42031;DHT22;27709;52.036;5.906;2023-03-23T17:32:59;14.20;99.90